Time;durP1;ratioP1;P1;durP2;ratioP2;P2;SDS_P1;SDS_P2;PMS_P1;PMS_P2;Temp;Humidity;BMP_temperature;BMP_pressure;BME280_temperature;BME280_humidity;BME280_pressure;Samples;Min_cycle;Max_cycle;Signal;HPM_P1;HPM_P2
2023/08/26 00:01:23;;;;;;;;;;;17.10;99.90;;;;;;5120277;27;19923;-65
2023/08/26 00:03:49;;;;;;;;;;;17.30;99.90;;;;;;5103442;28;20379;-63
2023/08/26 00:06:16;;;;;;;;;;;17.30;99.90;;;;;;5104676;28;19912;-63
2023/08/26 00:08:42;;;;;;;;;;;17.40;99.90;;;;;;5104975;28;19954;-60
2023/08/26 00:11:09;;;;;;;;;;;17.40;99.90;;;;;;5113517;27;19951;-67
2023/08/26 00:13:36;;;;;;;;;;;17.50;99.90;;;;;;5095596;28;19908;-62
2023/08/26 00:16:02;;;;;;;;;;;17.60;99.90;;;;;;5103627;27;19923;-62
2023/08/26 00:18:29;;;;;;;;;;;17.70;99.90;;;;;;5099267;28;19993;-66
2023/08/26 00:20:57;;;;;;;;;;;17.80;99.90;;;;;;5112362;27;19994;-63
2023/08/26 00:23:24;;;;;;;;;;;17.90;99.90;;;;;;5095883;28;19914;-61
2023/08/26 00:25:51;;;;;;;;;;;18.00;99.90;;;;;;5104019;27;19954;-62
2023/08/26 00:28:17;;;;;;;;;;;18.00;99.90;;;;;;5095843;28;19966;-62
2023/08/26 00:30:44;;;;;;;;;;;18.00;99.90;;;;;;5094999;28;19908;-62
2023/08/26 00:33:10;;;;;;;;;;;18.00;99.90;;;;;;5095541;28;19956;-62
2023/08/26 00:35:38;;;;;;;;;;;18.00;99.90;;;;;;5095919;28;19999;-64
2023/08/26 00:38:05;;;;;;;;;;;18.00;99.90;;;;;;5099516;28;19916;-65
2023/08/26 00:40:35;;;;;;;;;;;18.00;99.90;;;;;;5115938;28;19973;-61
2023/08/26 00:43:07;;;;;;;;;;;18.20;99.90;;;;;;5115897;28;19912;-62
2023/08/26 00:45:34;;;;;;;;;;;18.40;99.90;;;;;;5113592;28;19966;-63
2023/08/26 00:48:00;;;;;;;;;;;18.50;99.90;;;;;;5115875;28;19915;-65
2023/08/26 00:50:28;;;;;;;;;;;18.60;99.90;;;;;;5116047;28;19908;-65
2023/08/26 00:52:55;;;;;;;;;;;18.60;99.90;;;;;;5115196;28;19938;-63
2023/08/26 00:55:21;;;;;;;;;;;18.60;99.90;;;;;;5115963;28;19914;-64
2023/08/26 00:57:48;;;;;;;;;;;18.60;99.90;;;;;;5113201;28;19950;-67
2023/08/26 01:00:15;;;;;;;;;;;18.50;99.90;;;;;;5114892;28;19916;-63
2023/08/26 01:02:42;;;;;;;;;;;18.40;99.90;;;;;;5115033;28;19908;-61
2023/08/26 01:05:09;;;;;;;;;;;18.30;99.90;;;;;;5114984;28;19907;-65
2023/08/26 01:07:36;;;;;;;;;;;18.20;99.90;;;;;;5111655;28;19912;-66
2023/08/26 01:10:03;;;;;;;;;;;18.20;99.90;;;;;;5113997;28;19914;-63
2023/08/26 01:12:48;;;;;;;;;;;18.10;99.90;;;;;;5114787;28;19908;-65
2023/08/26 01:15:15;;;;;;;;;;;18.20;99.90;;;;;;5113381;28;19908;-65
2023/08/26 01:17:42;;;;;;;;;;;18.40;99.90;;;;;;5114819;28;20272;-65
2023/08/26 01:20:09;;;;;;;;;;;18.70;99.90;;;;;;5114663;28;19915;-62
2023/08/26 01:22:37;;;;;;;;;;;18.80;99.90;;;;;;5114567;28;19953;-65
2023/08/26 01:25:04;;;;;;;;;;;18.80;99.90;;;;;;5114753;28;19908;-63
2023/08/26 01:27:30;;;;;;;;;;;18.80;99.90;;;;;;5114235;28;19915;-63
2023/08/26 01:29:57;;;;;;;;;;;18.80;99.90;;;;;;5114344;28;19966;-62
2023/08/26 01:32:35;;;;;;;;;;;19.00;99.90;;;;;;5112903;28;19923;-64
2023/08/26 01:35:04;;;;;;;;;;;19.10;99.90;;;;;;5113955;28;19934;-64
2023/08/26 01:37:31;;;;;;;;;;;19.10;99.90;;;;;;5111477;28;20383;-63
2023/08/26 01:39:58;;;;;;;;;;;19.20;99.90;;;;;;5114153;28;20580;-62
2023/08/26 01:42:26;;;;;;;;;;;19.30;99.90;;;;;;5103806;28;20371;-63
2023/08/26 01:44:53;;;;;;;;;;;19.60;99.90;;;;;;5104512;28;19923;-64
2023/08/26 01:47:20;;;;;;;;;;;19.80;99.90;;;;;;5105278;28;19968;-62
2023/08/26 01:49:46;;;;;;;;;;;20.00;99.90;;;;;;5114755;28;19908;-62
2023/08/26 01:52:13;;;;;;;;;;;20.20;99.90;;;;;;5114477;28;19908;-63
2023/08/26 01:54:40;;;;;;;;;;;20.40;99.90;;;;;;5114873;28;19908;-64
2023/08/26 01:57:06;;;;;;;;;;;20.50;99.90;;;;;;5114771;28;19918;-64
2023/08/26 01:59:33;;;;;;;;;;;20.60;99.90;;;;;;5096420;28;19919;-64
2023/08/26 02:02:00;;;;;;;;;;;20.50;99.90;;;;;;5114467;28;19911;-64
2023/08/26 02:04:27;;;;;;;;;;;20.30;99.90;;;;;;5096528;28;20356;-64
2023/08/26 02:06:53;;;;;;;;;;;20.20;99.90;;;;;;5093397;28;19912;-64
2023/08/26 02:09:20;;;;;;;;;;;20.00;99.90;;;;;;5093612;28;19916;-63
2023/08/26 02:11:46;;;;;;;;;;;19.80;99.90;;;;;;5099911;28;19912;-65
2023/08/26 02:14:13;;;;;;;;;;;19.70;99.90;;;;;;5114365;28;19908;-63
2023/08/26 02:16:40;;;;;;;;;;;19.60;99.90;;;;;;5114141;28;19908;-65
2023/08/26 02:19:06;;;;;;;;;;;19.60;99.90;;;;;;5104431;28;20368;-64
2023/08/26 02:21:33;;;;;;;;;;;19.50;99.90;;;;;;5109777;28;19923;-62
2023/08/26 02:23:59;;;;;;;;;;;19.80;99.90;;;;;;5111693;28;19919;-61
2023/08/26 02:26:26;;;;;;;;;;;20.20;99.90;;;;;;5113048;28;19908;-65
2023/08/26 02:28:53;;;;;;;;;;;20.50;99.90;;;;;;5113295;28;19908;-70
2023/08/26 02:31:20;;;;;;;;;;;20.90;99.90;;;;;;5110627;28;20248;-63
2023/08/26 02:33:46;;;;;;;;;;;21.20;99.90;;;;;;5113430;28;19931;-66
2023/08/26 02:36:13;;;;;;;;;;;21.20;99.90;;;;;;5112919;28;20002;-65
2023/08/26 02:38:40;;;;;;;;;;;21.60;99.90;;;;;;5110167;28;19960;-67
2023/08/26 02:41:07;;;;;;;;;;;22.10;99.90;;;;;;5113342;28;19947;-64
2023/08/26 02:43:34;;;;;;;;;;;22.90;99.00;;;;;;5113137;28;20010;-62
2023/08/26 02:46:00;;;;;;;;;;;23.90;97.40;;;;;;5112323;28;20300;-63
2023/08/26 02:48:27;;;;;;;;;;;24.70;95.10;;;;;;5111778;28;19908;-64
2023/08/26 02:50:57;;;;;;;;;;;25.60;94.70;;;;;;5113046;28;19965;-62
2023/08/26 02:53:25;;;;;;;;;;;27.00;92.10;;;;;;5113164;28;20349;-64
2023/08/26 02:55:51;;;;;;;;;;;28.20;90.70;;;;;;5112343;28;19959;-66
2023/08/26 02:58:18;;;;;;;;;;;28.90;87.20;;;;;;5100581;28;20278;-62
2023/08/26 03:00:46;;;;;;;;;;;29.40;84.00;;;;;;5092105;28;19951;-63
2023/08/26 03:03:13;;;;;;;;;;;29.50;82.50;;;;;;5091275;28;20298;-63
2023/08/26 03:05:40;;;;;;;;;;;29.80;80.40;;;;;;5091375;28;19915;-68
2023/08/26 03:08:07;;;;;;;;;;;30.00;79.60;;;;;;5097034;28;19912;-63
2023/08/26 03:10:34;;;;;;;;;;;30.40;78.40;;;;;;5111503;28;20352;-64
2023/08/26 03:13:01;;;;;;;;;;;29.30;78.50;;;;;;5111155;28;19923;-64
2023/08/26 03:15:28;;;;;;;;;;;29.00;79.70;;;;;;5093426;28;19908;-62
2023/08/26 03:17:56;;;;;;;;;;;29.10;79.50;;;;;;5113263;28;20006;-62
2023/08/26 03:20:23;;;;;;;;;;;28.60;80.20;;;;;;5113543;28;19922;-62
2023/08/26 03:22:50;;;;;;;;;;;28.00;81.90;;;;;;5113434;28;19908;-61
2023/08/26 03:25:16;;;;;;;;;;;28.60;82.00;;;;;;5099569;28;19912;-62
2023/08/26 03:27:43;;;;;;;;;;;30.20;78.20;;;;;;5092868;28;19908;-62
2023/08/26 03:30:10;;;;;;;;;;;31.60;76.10;;;;;;5093033;28;20343;-63
2023/08/26 03:32:37;;;;;;;;;;;32.20;74.80;;;;;;5097522;28;19912;-62
2023/08/26 03:35:04;;;;;;;;;;;33.30;71.20;;;;;;5109809;28;19911;-63
2023/08/26 03:37:30;;;;;;;;;;;33.70;69.50;;;;;;5110176;28;19916;-63
2023/08/26 03:39:58;;;;;;;;;;;34.20;69.10;;;;;;5112278;28;20374;-63
2023/08/26 03:42:25;;;;;;;;;;;33.40;69.00;;;;;;5112586;28;19908;-64
2023/08/26 03:44:52;;;;;;;;;;;32.40;70.30;;;;;;5111132;28;19916;-65
2023/08/26 03:47:19;;;;;;;;;;;32.20;70.80;;;;;;5109146;28;20249;-63
2023/08/26 03:49:45;;;;;;;;;;;32.40;70.00;;;;;;5111545;28;20412;-64
2023/08/26 03:52:12;;;;;;;;;;;31.40;70.20;;;;;;5110856;28;19945;-66
2023/08/26 03:54:39;;;;;;;;;;;30.60;72.40;;;;;;5111236;28;20027;-65
2023/08/26 03:57:05;;;;;;;;;;;30.50;73.00;;;;;;5107098;28;19957;-65
2023/08/26 03:59:32;;;;;;;;;;;30.90;72.40;;;;;;5111754;28;20334;-63
2023/08/26 04:01:59;;;;;;;;;;;31.70;71.50;;;;;;5111954;28;19915;-64
2023/08/26 04:04:25;;;;;;;;;;;32.80;69.20;;;;;;5111810;28;19915;-65
2023/08/26 04:06:52;;;;;;;;;;;32.20;68.90;;;;;;5109599;28;19969;-64
2023/08/26 04:09:19;;;;;;;;;;;30.70;71.50;;;;;;5107086;28;20353;-66
2023/08/26 04:11:45;;;;;;;;;;;30.10;73.20;;;;;;5106920;28;19945;-63
2023/08/26 04:14:12;;;;;;;;;;;30.70;72.30;;;;;;5111942;28;19994;-62
2023/08/26 04:16:38;;;;;;;;;;;31.90;71.20;;;;;;5108919;28;19995;-62
2023/08/26 04:19:06;;;;;;;;;;;32.30;69.80;;;;;;5108582;28;20283;-64
2023/08/26 04:21:32;;;;;;;;;;;32.10;69.20;;;;;;5108461;28;20127;-66
2023/08/26 04:23:59;;;;;;;;;;;32.60;69.50;;;;;;5111741;28;19915;-69
2023/08/26 04:26:25;;;;;;;;;;;32.70;68.10;;;;;;5111505;28;19994;-61
2023/08/26 04:28:52;;;;;;;;;;;32.90;68.10;;;;;;5112861;28;19916;-63
2023/08/26 04:31:19;;;;;;;;;;;33.10;67.80;;;;;;5112949;28;19912;-68
2023/08/26 04:33:46;;;;;;;;;;;33.80;67.10;;;;;;5115447;28;19908;-69
2023/08/26 04:36:13;;;;;;;;;;;33.40;67.00;;;;;;5115073;28;19916;-68
2023/08/26 04:38:40;;;;;;;;;;;33.80;66.50;;;;;;5114974;28;19938;-67
2023/08/26 04:41:09;;;;;;;;;;;33.30;66.70;;;;;;5115121;28;19912;-68
2023/08/26 04:43:36;;;;;;;;;;;33.30;66.70;;;;;;5113484;28;19951;-69
2023/08/26 04:46:03;;;;;;;;;;;33.00;67.10;;;;;;5105215;28;20334;-69
2023/08/26 04:48:30;;;;;;;;;;;32.80;67.70;;;;;;5109193;27;19919;-68
2023/08/26 04:50:56;;;;;;;;;;;33.20;66.90;;;;;;5102888;28;19916;-68
2023/08/26 04:53:23;;;;;;;;;;;33.90;66.70;;;;;;5106905;27;19964;-66
2023/08/26 04:55:51;;;;;;;;;;;33.60;65.60;;;;;;5096767;28;19908;-67
2023/08/26 04:58:18;;;;;;;;;;;34.00;65.70;;;;;;5101314;28;19961;-69
2023/08/26 05:00:46;;;;;;;;;;;33.80;64.90;;;;;;5104608;28;19999;-67
2023/08/26 05:03:13;;;;;;;;;;;33.80;64.40;;;;;;5093352;28;19911;-69
2023/08/26 05:05:40;;;;;;;;;;;33.20;64.40;;;;;;5094139;28;19912;-68
2023/08/26 05:08:07;;;;;;;;;;;32.80;65.30;;;;;;5102657;28;19912;-66
2023/08/26 05:10:35;;;;;;;;;;;32.30;65.20;;;;;;5097284;28;19908;-64
2023/08/26 05:13:02;;;;;;;;;;;32.20;65.40;;;;;;5103010;28;19923;-66
2023/08/26 05:15:29;;;;;;;;;;;32.80;65.20;;;;;;5094330;28;19920;-66
2023/08/26 05:17:55;;;;;;;;;;;32.80;65.30;;;;;;5102245;28;19927;-67
2023/08/26 05:20:22;;;;;;;;;;;32.90;65.70;;;;;;5103461;28;20481;-66
2023/08/26 05:22:49;;;;;;;;;;;33.30;66.20;;;;;;5097787;27;19912;-67
2023/08/26 05:25:15;;;;;;;;;;;33.60;64.40;;;;;;5104391;28;20312;-66
2023/08/26 05:27:42;;;;;;;;;;;33.80;63.70;;;;;;5098784;27;19919;-66
2023/08/26 05:30:09;;;;;;;;;;;33.60;63.40;;;;;;5114856;28;19990;-67
2023/08/26 05:32:35;;;;;;;;;;;33.80;63.90;;;;;;5114529;28;19914;-65
2023/08/26 05:35:03;;;;;;;;;;;34.30;62.00;;;;;;5109813;28;20495;-66
2023/08/26 05:37:29;;;;;;;;;;;34.10;61.50;;;;;;5114980;28;19989;-66
2023/08/26 05:39:56;;;;;;;;;;;33.80;61.70;;;;;;5100251;28;19927;-66
2023/08/26 05:42:23;;;;;;;;;;;33.50;62.10;;;;;;5094223;28;20295;-66
2023/08/26 05:44:49;;;;;;;;;;;33.30;62.20;;;;;;5093980;28;20018;-66
2023/08/26 05:47:16;;;;;;;;;;;33.30;62.50;;;;;;5094575;28;19918;-66
2023/08/26 05:49:43;;;;;;;;;;;33.80;62.20;;;;;;5112957;28;19912;-66
2023/08/26 05:52:09;;;;;;;;;;;33.70;61.90;;;;;;5096215;28;20299;-65
2023/08/26 05:54:36;;;;;;;;;;;33.30;61.40;;;;;;5100138;28;19913;-66
2023/08/26 05:57:02;;;;;;;;;;;32.90;62.90;;;;;;5103480;28;20277;-65
2023/08/26 05:59:29;;;;;;;;;;;33.20;62.30;;;;;;5114481;28;19923;-65
2023/08/26 06:01:56;;;;;;;;;;;32.70;63.50;;;;;;5114374;28;19907;-67
2023/08/26 06:04:23;;;;;;;;;;;32.50;64.30;;;;;;5114034;28;20018;-65
2023/08/26 06:06:50;;;;;;;;;;;32.60;64.20;;;;;;5098327;28;20003;-65
2023/08/26 06:09:16;;;;;;;;;;;32.70;63.50;;;;;;5093865;28;20446;-66
2023/08/26 06:11:43;;;;;;;;;;;32.90;62.20;;;;;;5094011;28;20395;-67
2023/08/26 06:14:09;;;;;;;;;;;33.00;62.70;;;;;;5099760;28;20010;-65
2023/08/26 06:16:36;;;;;;;;;;;32.80;61.80;;;;;;5111050;28;19920;-66
2023/08/26 06:19:03;;;;;;;;;;;32.20;62.20;;;;;;5110402;28;20376;-66
2023/08/26 06:21:29;;;;;;;;;;;31.80;63.40;;;;;;5105010;28;19919;-65
2023/08/26 06:23:56;;;;;;;;;;;30.60;65.80;;;;;;5076709;28;19949;-65
2023/08/26 06:26:23;;;;;;;;;;;30.00;67.60;;;;;;5105384;27;20339;-65
2023/08/26 06:28:49;;;;;;;;;;;29.40;68.40;;;;;;5120381;27;19912;-65
2023/08/26 06:31:16;;;;;;;;;;;29.10;69.50;;;;;;5094852;28;19912;-65
2023/08/26 06:33:43;;;;;;;;;;;29.50;69.20;;;;;;5098751;28;20379;-65
2023/08/26 06:36:10;;;;;;;;;;;29.00;68.10;;;;;;5094880;28;19943;-65
2023/08/26 06:38:36;;;;;;;;;;;28.70;69.60;;;;;;5097802;28;20331;-65
2023/08/26 06:41:03;;;;;;;;;;;28.80;69.00;;;;;;5092588;28;20695;-67
2023/08/26 06:43:30;;;;;;;;;;;28.20;70.70;;;;;;5101818;27;19919;-66
2023/08/26 06:45:57;;;;;;;;;;;27.70;71.70;;;;;;5095490;28;19920;-66
2023/08/26 06:48:24;;;;;;;;;;;27.60;72.10;;;;;;5094372;28;20428;-66
2023/08/26 06:50:51;;;;;;;;;;;27.60;72.00;;;;;;5092517;28;19983;-65
2023/08/26 06:53:21;;;;;;;;;;;26.90;71.70;;;;;;5101354;28;19912;-64
2023/08/26 06:55:49;;;;;;;;;;;26.10;74.10;;;;;;5092364;28;20357;-66
2023/08/26 06:58:16;;;;;;;;;;;25.30;75.80;;;;;;5095885;28;19919;-65
2023/08/26 07:00:42;;;;;;;;;;;24.20;78.20;;;;;;5100774;28;19916;-67
2023/08/26 07:03:09;;;;;;;;;;;23.40;81.20;;;;;;5101118;28;19965;-64
2023/08/26 07:05:38;;;;;;;;;;;22.80;83.30;;;;;;5091782;28;19908;-65
2023/08/26 07:08:04;;;;;;;;;;;22.10;85.70;;;;;;5096256;28;20015;-64
2023/08/26 07:10:31;;;;;;;;;;;21.70;87.90;;;;;;5092233;28;19944;-64
2023/08/26 07:12:57;;;;;;;;;;;21.30;89.40;;;;;;5101105;27;19991;-65
2023/08/26 07:15:24;;;;;;;;;;;21.00;90.50;;;;;;5093370;28;20432;-68
2023/08/26 07:17:52;;;;;;;;;;;20.60;91.10;;;;;;5096800;28;19912;-63
2023/08/26 07:20:18;;;;;;;;;;;20.30;91.50;;;;;;5092312;28;20328;-64
2023/08/26 07:22:46;;;;;;;;;;;19.90;92.30;;;;;;5082517;28;20754;-65
2023/08/26 07:25:13;;;;;;;;;;;19.60;93.00;;;;;;5091982;28;19915;-67
2023/08/26 07:27:40;;;;;;;;;;;19.40;93.80;;;;;;5099271;27;19912;-65
2023/08/26 07:30:09;;;;;;;;;;;19.20;94.40;;;;;;5092181;28;20034;-65
2023/08/26 07:32:36;;;;;;;;;;;19.00;95.20;;;;;;5100919;28;20292;-67
2023/08/26 07:35:03;;;;;;;;;;;18.90;95.90;;;;;;5092609;28;19912;-65
2023/08/26 07:37:29;;;;;;;;;;;18.80;96.40;;;;;;5103316;28;20019;-69
2023/08/26 07:39:56;;;;;;;;;;;18.60;97.20;;;;;;5092391;28;19996;-64
2023/08/26 07:42:23;;;;;;;;;;;18.60;97.80;;;;;;5099351;28;20387;-66
2023/08/26 07:44:50;;;;;;;;;;;18.40;98.30;;;;;;5092362;28;19916;-66
2023/08/26 07:47:17;;;;;;;;;;;18.40;99.00;;;;;;5102751;28;19931;-68
2023/08/26 07:49:43;;;;;;;;;;;18.20;99.40;;;;;;5092562;28;19908;-68
2023/08/26 07:52:10;;;;;;;;;;;18.20;99.90;;;;;;5099278;28;20005;-66
2023/08/26 07:54:37;;;;;;;;;;;18.10;99.90;;;;;;5098664;28;19912;-67
2023/08/26 07:57:03;;;;;;;;;;;18.00;99.90;;;;;;5100943;28;19916;-68
2023/08/26 07:59:30;;;;;;;;;;;18.00;99.90;;;;;;5109249;28;19927;-68
2023/08/26 08:01:57;;;;;;;;;;;17.90;99.90;;;;;;5106069;28;19954;-65
2023/08/26 08:04:23;;;;;;;;;;;17.80;99.90;;;;;;5115947;28;19981;-65
2023/08/26 08:06:50;;;;;;;;;;;17.80;99.90;;;;;;5115817;28;19910;-68
2023/08/26 08:09:16;;;;;;;;;;;17.70;99.90;;;;;;5111820;28;19919;-71
2023/08/26 08:11:43;;;;;;;;;;;17.60;99.90;;;;;;5114163;28;19925;-69
2023/08/26 08:14:10;;;;;;;;;;;17.50;99.90;;;;;;5116622;28;20368;-67
2023/08/26 08:16:36;;;;;;;;;;;17.50;99.90;;;;;;5116407;28;19912;-67
2023/08/26 08:19:03;;;;;;;;;;;17.40;99.90;;;;;;5097293;28;20252;-68
2023/08/26 08:21:30;;;;;;;;;;;17.30;99.90;;;;;;5114094;28;19912;-68
2023/08/26 08:23:56;;;;;;;;;;;17.20;99.90;;;;;;5116377;28;19908;-67
2023/08/26 08:26:23;;;;;;;;;;;17.20;99.90;;;;;;5114787;28;19934;-67
2023/08/26 08:28:50;;;;;;;;;;;17.10;99.90;;;;;;5114924;28;19912;-69
2023/08/26 08:31:16;;;;;;;;;;;17.10;99.90;;;;;;5115424;28;19923;-66
2023/08/26 08:33:43;;;;;;;;;;;17.10;99.90;;;;;;5106136;28;19929;-64
2023/08/26 08:36:10;;;;;;;;;;;17.00;99.90;;;;;;5116035;28;19922;-65
2023/08/26 08:38:36;;;;;;;;;;;17.00;99.90;;;;;;5115990;28;19911;-67
2023/08/26 08:41:03;;;;;;;;;;;16.90;99.90;;;;;;5104496;28;19959;-66
2023/08/26 08:43:30;;;;;;;;;;;16.90;99.90;;;;;;5116425;28;19915;-66
2023/08/26 08:45:57;;;;;;;;;;;16.90;99.90;;;;;;5096423;28;20311;-69
2023/08/26 08:48:24;;;;;;;;;;;16.90;99.90;;;;;;5096128;28;19912;-68
2023/08/26 08:50:51;;;;;;;;;;;16.80;99.90;;;;;;5115472;28;19915;-65
2023/08/26 08:53:22;;;;;;;;;;;16.80;99.90;;;;;;5095641;28;19908;-66
2023/08/26 08:55:49;;;;;;;;;;;16.70;99.90;;;;;;5113071;28;19915;-66
2023/08/26 08:58:17;;;;;;;;;;;16.70;99.90;;;;;;5115800;28;19908;-69
2023/08/26 09:00:43;;;;;;;;;;;16.70;99.90;;;;;;5115819;28;19915;-67
2023/08/26 09:03:10;;;;;;;;;;;16.60;99.90;;;;;;5115488;28;19908;-66
2023/08/26 09:05:37;;;;;;;;;;;16.60;99.90;;;;;;5115582;28;19976;-67
2023/08/26 09:08:04;;;;;;;;;;;16.60;99.90;;;;;;5114996;28;20393;-66
2023/08/26 09:10:31;;;;;;;;;;;16.60;99.90;;;;;;5115497;28;19956;-65
2023/08/26 09:12:59;;;;;;;;;;;16.60;99.90;;;;;;5113727;28;19914;-67
2023/08/26 09:15:26;;;;;;;;;;;16.50;99.90;;;;;;5106962;28;20305;-66
2023/08/26 09:17:57;;;;;;;;;;;16.50;99.90;;;;;;5115272;28;19912;-66
2023/08/26 09:20:24;;;;;;;;;;;16.50;99.90;;;;;;5113097;28;19945;-66
2023/08/26 09:23:02;;;;;;;;;;;16.50;99.90;;;;;;5114945;28;19911;-67
2023/08/26 09:25:30;;;;;;;;;;;16.40;99.90;;;;;;5095637;28;19915;-65
2023/08/26 09:27:56;;;;;;;;;;;16.40;99.90;;;;;;5108813;28;19922;-71
2023/08/26 09:30:23;;;;;;;;;;;16.40;99.90;;;;;;5113262;28;19918;-68
2023/08/26 09:32:52;;;;;;;;;;;16.40;99.90;;;;;;5113836;28;19912;-65
2023/08/26 09:35:18;;;;;;;;;;;16.30;99.90;;;;;;5113223;28;19912;-66
2023/08/26 09:37:46;;;;;;;;;;;16.30;99.90;;;;;;5114355;28;19912;-67
2023/08/26 09:40:13;;;;;;;;;;;16.30;99.90;;;;;;5108626;28;19970;-65
2023/08/26 09:42:40;;;;;;;;;;;16.30;99.90;;;;;;5105534;28;19936;-66
2023/08/26 09:45:10;;;;;;;;;;;16.30;99.90;;;;;;5113290;28;19960;-65
2023/08/26 09:47:38;;;;;;;;;;;16.30;99.90;;;;;;5094237;28;19951;-63
2023/08/26 09:50:05;;;;;;;;;;;16.30;99.90;;;;;;5094280;28;19933;-67
2023/08/26 09:52:41;;;;;;;;;;;16.20;99.90;;;;;;5108222;28;20376;-66
2023/08/26 09:55:08;;;;;;;;;;;16.10;99.90;;;;;;5111536;28;19995;-71
2023/08/26 09:57:35;;;;;;;;;;;16.10;99.90;;;;;;5112508;28;19958;-62
2023/08/26 10:00:01;;;;;;;;;;;16.10;99.90;;;;;;5114366;28;19944;-65
2023/08/26 10:02:31;;;;;;;;;;;15.90;99.90;;;;;;5102201;28;20276;-66
2023/08/26 10:04:58;;;;;;;;;;;16.00;99.90;;;;;;5103049;28;19912;-64
2023/08/26 10:07:26;;;;;;;;;;;15.90;99.90;;;;;;5110664;28;19995;-65
2023/08/26 10:10:13;;;;;;;;;;;15.90;99.90;;;;;;5079280;28;19916;-64
2023/08/26 10:12:46;;;;;;;;;;;15.80;99.90;;;;;;5093597;28;19912;-68
2023/08/26 10:15:14;;;;;;;;;;;15.70;99.90;;;;;;5094970;28;19923;-71
2023/08/26 10:17:44;;;;;;;;;;;15.70;99.90;;;;;;5106250;28;20280;-65
2023/08/26 10:20:11;;;;;;;;;;;15.70;99.90;;;;;;5113949;28;19966;-67
2023/08/26 10:22:38;;;;;;;;;;;15.60;99.90;;;;;;5114101;28;19995;-66
2023/08/26 10:25:06;;;;;;;;;;;15.50;99.90;;;;;;5113441;28;19916;-68
2023/08/26 10:27:33;;;;;;;;;;;15.50;99.90;;;;;;5113465;28;19915;-67
2023/08/26 10:30:00;;;;;;;;;;;15.40;99.90;;;;;;5104299;28;20003;-72
2023/08/26 10:32:28;;;;;;;;;;;15.40;99.90;;;;;;5113903;28;19961;-68
2023/08/26 10:34:58;;;;;;;;;;;15.40;99.90;;;;;;5103541;28;19951;-66
2023/08/26 10:37:26;;;;;;;;;;;15.40;99.90;;;;;;5100451;28;19912;-69
2023/08/26 10:39:54;;;;;;;;;;;15.30;99.90;;;;;;5105862;28;19915;-66
2023/08/26 10:42:21;;;;;;;;;;;15.30;99.90;;;;;;5106690;28;19927;-71
2023/08/26 10:44:55;;;;;;;;;;;15.30;99.90;;;;;;5109986;28;19927;-66
2023/08/26 10:47:41;;;;;;;;;;;15.20;99.90;;;;;;5095328;28;19955;-67
2023/08/26 10:50:20;;;;;;;;;;;15.10;99.90;;;;;;5093079;28;19913;-69
2023/08/26 10:52:54;;;;;;;;;;;15.10;99.90;;;;;;5098260;28;19916;-69
2023/08/26 10:55:22;;;;;;;;;;;15.10;99.90;;;;;;5099699;28;19912;-68
2023/08/26 10:58:14;;;;;;;;;;;15.00;99.90;;;;;;5110035;28;19912;-66
2023/08/26 11:00:41;;;;;;;;;;;15.00;99.90;;;;;;5112382;28;20406;-67
2023/08/26 11:03:11;;;;;;;;;;;14.90;99.90;;;;;;5110867;28;20272;-67
2023/08/26 11:05:39;;;;;;;;;;;15.00;99.90;;;;;;5107432;28;19923;-67
2023/08/26 11:08:06;;;;;;;;;;;14.90;99.90;;;;;;5109771;28;19964;-69
2023/08/26 11:10:39;;;;;;;;;;;14.80;99.90;;;;;;5093232;28;20335;-67
2023/08/26 11:13:06;;;;;;;;;;;14.80;99.90;;;;;;5093149;28;19908;-67
2023/08/26 11:15:43;;;;;;;;;;;14.80;99.90;;;;;;5099909;28;20048;-68
2023/08/26 11:18:10;;;;;;;;;;;14.80;99.90;;;;;;5108061;28;19916;-68
2023/08/26 11:20:37;;;;;;;;;;;14.70;99.90;;;;;;5100905;28;19916;-69
2023/08/26 11:23:05;;;;;;;;;;;14.70;99.90;;;;;;5101469;28;19918;-71
2023/08/26 11:25:33;;;;;;;;;;;14.60;99.90;;;;;;5109880;28;19919;-66
2023/08/26 11:28:04;;;;;;;;;;;14.70;99.90;;;;;;5111776;28;19911;-67
2023/08/26 11:30:31;;;;;;;;;;;14.60;99.90;;;;;;5112528;28;19911;-69
2023/08/26 11:32:59;;;;;;;;;;;14.50;99.90;;;;;;5110673;28;19912;-67
2023/08/26 11:35:26;;;;;;;;;;;14.50;99.90;;;;;;5109078;28;20010;-63
2023/08/26 11:37:52;;;;;;;;;;;14.50;99.90;;;;;;5109569;28;20393;-67
2023/08/26 11:40:19;;;;;;;;;;;14.40;99.90;;;;;;5110119;28;19920;-67
2023/08/26 11:42:46;;;;;;;;;;;14.40;99.90;;;;;;5109508;28;19912;-68
2023/08/26 11:45:13;;;;;;;;;;;14.40;99.90;;;;;;5111162;28;19967;-67
2023/08/26 11:47:42;;;;;;;;;;;14.40;99.90;;;;;;5111783;28;19944;-66
2023/08/26 11:50:10;;;;;;;;;;;14.30;99.90;;;;;;5093317;28;20012;-65
2023/08/26 11:52:38;;;;;;;;;;;14.40;99.90;;;;;;5090990;28;19951;-68
2023/08/26 11:55:06;;;;;;;;;;;14.30;99.90;;;;;;5108516;28;19908;-65
2023/08/26 11:57:37;;;;;;;;;;;14.30;99.90;;;;;;5111463;28;19923;-69
2023/08/26 12:00:07;;;;;;;;;;;14.20;99.90;;;;;;5111422;28;20003;-68
2023/08/26 12:02:33;;;;;;;;;;;14.30;99.90;;;;;;5111049;28;20420;-67
2023/08/26 12:05:00;;;;;;;;;;;14.20;99.90;;;;;;5109568;28;19911;-66
2023/08/26 12:07:29;;;;;;;;;;;14.20;99.90;;;;;;5111095;28;19953;-70
2023/08/26 12:09:57;;;;;;;;;;;14.20;99.90;;;;;;5111280;28;19908;-68
2023/08/26 12:12:24;;;;;;;;;;;14.20;99.90;;;;;;5111220;28;19912;-68
2023/08/26 12:14:51;;;;;;;;;;;14.20;99.90;;;;;;5111160;28;19908;-69
2023/08/26 12:17:18;;;;;;;;;;;14.20;99.90;;;;;;5112679;28;19908;-69
2023/08/26 12:19:44;;;;;;;;;;;14.10;99.90;;;;;;5112758;28;19916;-70
2023/08/26 12:22:11;;;;;;;;;;;14.00;99.90;;;;;;5112613;28;19907;-70
2023/08/26 12:24:38;;;;;;;;;;;14.00;99.90;;;;;;5112069;28;19907;-70
2023/08/26 12:27:11;;;;;;;;;;;14.00;99.90;;;;;;5112214;28;19918;-70
2023/08/26 12:29:38;;;;;;;;;;;14.00;99.90;;;;;;5113733;28;19912;-70
2023/08/26 12:32:05;;;;;;;;;;;13.90;99.90;;;;;;5112918;28;19908;-72
2023/08/26 12:34:31;;;;;;;;;;;13.90;99.90;;;;;;5102203;28;20003;-68
2023/08/26 12:36:58;;;;;;;;;;;13.90;99.90;;;;;;5092542;28;19965;-68
2023/08/26 12:39:25;;;;;;;;;;;13.80;99.90;;;;;;5092421;28;20420;-74
2023/08/26 12:41:55;;;;;;;;;;;13.90;99.90;;;;;;5093647;28;20006;-74
2023/08/26 12:44:23;;;;;;;;;;;13.90;99.90;;;;;;5112446;28;20280;-71
2023/08/26 12:46:50;;;;;;;;;;;13.80;99.90;;;;;;5112587;28;19923;-67
2023/08/26 12:49:17;;;;;;;;;;;13.80;99.90;;;;;;5114021;28;19908;-69
2023/08/26 12:51:43;;;;;;;;;;;13.80;99.90;;;;;;5117480;28;19918;-72
2023/08/26 12:54:10;;;;;;;;;;;13.70;99.90;;;;;;5106683;28;20022;-72
2023/08/26 12:56:37;;;;;;;;;;;13.80;99.90;;;;;;5095936;28;19908;-68
2023/08/26 12:59:04;;;;;;;;;;;13.70;99.90;;;;;;5095579;28;19942;-70
2023/08/26 13:01:30;;;;;;;;;;;13.70;99.90;;;;;;5100663;28;19912;-72
2023/08/26 13:03:57;;;;;;;;;;;13.70;99.90;;;;;;5113688;28;19908;-74
2023/08/26 13:06:25;;;;;;;;;;;13.70;99.90;;;;;;5095546;28;19912;-74
2023/08/26 13:08:52;;;;;;;;;;;13.60;99.90;;;;;;5096323;28;19916;-67
2023/08/26 13:11:18;;;;;;;;;;;13.60;99.90;;;;;;5095935;28;20257;-69
2023/08/26 13:13:45;;;;;;;;;;;13.60;99.90;;;;;;5095524;28;19908;-71
2023/08/26 13:16:11;;;;;;;;;;;13.60;99.90;;;;;;5095595;28;19919;-69
2023/08/26 13:18:42;;;;;;;;;;;13.50;99.90;;;;;;5095541;28;19912;-69
2023/08/26 13:21:09;;;;;;;;;;;13.60;99.90;;;;;;5095774;28;19908;-72
2023/08/26 13:23:36;;;;;;;;;;;13.50;99.90;;;;;;5077218;28;19912;-71
2023/08/26 13:26:03;;;;;;;;;;;13.50;99.90;;;;;;5082410;28;19908;-69
2023/08/26 13:28:29;;;;;;;;;;;13.40;99.90;;;;;;5115991;28;19967;-68
2023/08/26 13:30:56;;;;;;;;;;;13.40;99.90;;;;;;5114279;28;19912;-67
2023/08/26 13:33:23;;;;;;;;;;;13.40;99.90;;;;;;5115569;28;20318;-68
2023/08/26 13:35:50;;;;;;;;;;;13.30;99.90;;;;;;5115462;28;19991;-69
2023/08/26 13:38:17;;;;;;;;;;;13.30;99.90;;;;;;5115611;28;19915;-68
2023/08/26 13:40:43;;;;;;;;;;;13.30;99.90;;;;;;5115298;28;20362;-69
2023/08/26 13:43:10;;;;;;;;;;;13.30;99.90;;;;;;5115474;28;19908;-68
2023/08/26 13:45:36;;;;;;;;;;;13.30;99.90;;;;;;5099080;28;19920;-69
2023/08/26 13:48:03;;;;;;;;;;;13.20;99.90;;;;;;5094886;28;19916;-70
2023/08/26 13:50:30;;;;;;;;;;;13.20;99.90;;;;;;5094768;28;19916;-69
2023/08/26 13:52:56;;;;;;;;;;;13.20;99.90;;;;;;5094817;28;19908;-69
2023/08/26 13:55:23;;;;;;;;;;;13.20;99.90;;;;;;5094707;28;20002;-67
2023/08/26 13:57:50;;;;;;;;;;;13.10;99.90;;;;;;5098929;28;19919;-67
2023/08/26 14:00:16;;;;;;;;;;;13.00;99.90;;;;;;5093758;28;19916;-67
2023/08/26 14:02:43;;;;;;;;;;;13.10;99.90;;;;;;5094268;28;19923;-70
2023/08/26 14:05:12;;;;;;;;;;;13.10;99.90;;;;;;5097838;28;20000;-67
2023/08/26 14:07:39;;;;;;;;;;;13.10;99.90;;;;;;5114590;28;19907;-67
2023/08/26 14:10:06;;;;;;;;;;;13.10;99.90;;;;;;5096531;28;19958;-69
2023/08/26 14:12:34;;;;;;;;;;;13.10;99.90;;;;;;5114478;28;20003;-69
2023/08/26 14:15:01;;;;;;;;;;;13.00;99.90;;;;;;5114244;28;19908;-66
2023/08/26 14:17:27;;;;;;;;;;;13.00;99.90;;;;;;5114721;28;19968;-68